Time;durP1;ratioP1;P1;durP2;ratioP2;P2;SDS_P1;SDS_P2;PMS_P1;PMS_P2;Temp;Humidity;BMP_temperature;BMP_pressure;BME280_temperature;BME280_humidity;BME280_pressure;Samples;Min_cycle;Max_cycle;Signal;HPM_P1;HPM_P2
2023/08/14 00:01:55;;;;;;;11.10;2.70;;;;;;;24.93;46.21;101328.34;4996759;28;20034;-62
2023/08/14 00:04:20;;;;;;;2.60;1.30;;;;;;;24.92;46.06;101325.81;4996502;28;20030;-62
2023/08/14 00:06:45;;;;;;;6.60;2.60;;;;;;;24.90;46.29;101335.09;5012777;28;20041;-63
2023/08/14 00:09:11;;;;;;;2.35;1.30;;;;;;;24.86;46.22;101333.00;5014006;28;20034;-61
2023/08/14 00:11:38;;;;;;;2.50;1.30;;;;;;;24.77;46.35;101318.63;5012673;28;20034;-62
2023/08/14 00:14:03;;;;;;;3.53;1.58;;;;;;;24.76;46.45;101325.13;5011469;28;20125;-62
2023/08/14 00:16:31;;;;;;;3.83;1.42;;;;;;;24.74;46.20;101321.78;5012704;28;20124;-63
2023/08/14 00:18:56;;;;;;;6.38;1.80;;;;;;;24.73;46.36;101327.47;4996302;28;20037;-62
2023/08/14 00:21:23;;;;;;;5.85;1.40;;;;;;;24.71;46.44;101324.94;5012623;28;20104;-62
2023/08/14 00:23:48;;;;;;;4.80;2.08;;;;;;;24.69;46.23;101327.03;4996131;28;20068;-62
2023/08/14 00:26:14;;;;;;;3.00;1.60;;;;;;;24.65;46.67;101319.47;5030525;28;20061;-63
2023/08/14 00:28:39;;;;;;;5.22;1.70;;;;;;;24.59;46.69;101315.66;5030838;28;20398;-62
2023/08/14 00:31:05;;;;;;;5.45;2.00;;;;;;;24.57;46.72;101328.69;5012587;28;20021;-62
2023/08/14 00:33:31;;;;;;;4.93;1.30;;;;;;;24.54;46.90;101323.63;5015297;28;20505;-63
2023/08/14 00:35:56;;;;;;;3.45;1.50;;;;;;;24.51;46.42;101315.00;5033099;28;20029;-62
2023/08/14 00:38:21;;;;;;;5.85;2.65;;;;;;;24.46;46.49;101312.88;5031417;28;20480;-62
2023/08/14 00:40:47;;;;;;;5.70;1.63;;;;;;;24.45;46.62;101313.94;5032684;28;20103;-61
2023/08/14 00:43:12;;;;;;;1.58;1.48;;;;;;;24.43;46.34;101316.03;5031622;28;20037;-62
2023/08/14 00:45:38;;;;;;;12.20;2.17;;;;;;;24.44;46.76;101316.88;4999314;28;20489;-63
2023/08/14 00:48:04;;;;;;;6.72;2.33;;;;;;;24.39;46.39;101312.03;5032567;28;20044;-62
2023/08/14 00:50:29;;;;;;;5.70;1.52;;;;;;;24.40;46.23;101315.63;5031469;28;20454;-62
2023/08/14 00:52:57;;;;;;;5.22;1.52;;;;;;;24.34;46.79;101318.13;5031099;28;20056;-62
2023/08/14 00:55:26;;;;;;;2.75;1.80;;;;;;;24.31;46.36;101317.72;5014775;28;20497;-63
2023/08/14 00:57:52;;;;;;;2.00;1.15;;;;;;;24.27;47.13;101310.94;5032552;28;20409;-62
2023/08/14 01:00:17;;;;;;;5.45;2.15;;;;;;;24.24;46.44;101309.47;5031438;28;20493;-63
2023/08/14 01:02:43;;;;;;;5.30;1.70;;;;;;;24.22;46.73;101310.72;5030983;28;20029;-62
2023/08/14 01:05:09;;;;;;;4.00;1.88;;;;;;;24.17;46.93;101305.88;5031248;28;20116;-63
2023/08/14 01:07:34;;;;;;;1.98;1.30;;;;;;;24.12;46.87;101308.38;5031069;28;20029;-63
2023/08/14 01:10:02;;;;;;;4.50;1.60;;;;;;;24.13;47.25;101317.44;5031081;28;20038;-62
2023/08/14 01:13:05;;;;;;;4.05;1.50;;;;;;;24.09;46.62;101308.78;5031182;28;20029;-62
2023/08/14 01:15:37;;;;;;;1.65;1.52;;;;;;;24.07;46.31;101310.00;5028703;28;20508;-62
2023/08/14 01:18:03;;;;;;;4.22;1.30;;;;;;;24.04;47.15;101303.03;5014645;28;20068;-62
2023/08/14 01:20:33;;;;;;;2.97;1.15;;;;;;;24.01;46.43;101302.63;5014016;28;20030;-62
2023/08/14 01:23:17;;;;;;;3.85;1.55;;;;;;;23.97;47.30;101299.47;5013685;28;20044;-63
2023/08/14 01:25:43;;;;;;;3.42;1.48;;;;;;;23.95;47.41;101300.72;5031013;28;20025;-62
2023/08/14 01:28:09;;;;;;;7.10;1.67;;;;;;;23.91;46.97;101297.53;5031240;28;20036;-62
2023/08/14 01:30:35;;;;;;;2.45;1.33;;;;;;;23.90;46.64;101292.28;5031589;28;20030;-62
2023/08/14 01:33:00;;;;;;;1.52;1.42;;;;;;;23.86;46.72;101285.50;5031557;28;20037;-62
2023/08/14 01:35:31;;;;;;;5.43;1.60;;;;;;;23.85;47.08;101273.72;5032724;28;20132;-62
2023/08/14 01:38:05;;;;;;;5.95;2.42;;;;;;;23.82;47.33;101273.28;5031486;28;20025;-62
2023/08/14 01:40:44;;;;;;;5.50;1.58;;;;;;;23.78;46.82;101267.38;5034525;28;20112;-62
2023/08/14 01:43:23;;;;;;;5.80;1.23;;;;;;;23.78;47.53;101268.22;5035584;28;20037;-62
2023/08/14 01:45:48;;;;;;;5.75;1.30;;;;;;;23.75;46.86;101270.53;5018618;28;20040;-62
2023/08/14 01:48:14;;;;;;;2.28;1.60;;;;;;;23.75;47.42;101262.31;5019116;28;20029;-62
2023/08/14 01:50:40;;;;;;;3.10;1.52;;;;;;;23.72;47.46;101268.19;5018785;28;20033;-62
2023/08/14 01:53:06;;;;;;;5.53;1.50;;;;;;;23.68;46.81;101262.28;5035381;28;20413;-62
2023/08/14 01:55:32;;;;;;;5.53;1.50;;;;;;;23.67;46.69;101270.72;5036510;28;20496;-62
2023/08/14 01:57:57;;;;;;;3.90;1.42;;;;;;;23.64;47.49;101271.13;5035323;28;20040;-62
2023/08/14 02:00:22;;;;;;;8.73;2.15;;;;;;;23.63;46.59;101269.41;5036484;28;20030;-62
2023/08/14 02:02:48;;;;;;;7.15;1.20;;;;;;;23.59;46.63;101265.41;5035804;28;20393;-62
2023/08/14 02:05:14;;;;;;;7.75;1.60;;;;;;;23.56;46.70;101263.09;5035517;28;20444;-63
2023/08/14 02:07:39;;;;;;;3.63;1.30;;;;;;;23.52;47.26;101262.66;5036362;28;20441;-62
2023/08/14 02:10:05;;;;;;;2.50;1.38;;;;;;;23.49;46.89;101249.38;5034751;28;20076;-62
2023/08/14 02:12:31;;;;;;;7.50;1.50;;;;;;;23.49;47.11;101259.47;5036467;28;20030;-62
2023/08/14 02:14:57;;;;;;;2.50;1.40;;;;;;;23.47;46.72;101248.75;5034816;28;20409;-62
2023/08/14 02:17:22;;;;;;;2.05;1.52;;;;;;;23.45;47.29;101256.28;5035832;28;20033;-62
2023/08/14 02:19:48;;;;;;;4.55;1.10;;;;;;;23.41;47.64;101248.69;5034966;28;20053;-63
2023/08/14 02:22:14;;;;;;;1.73;1.50;;;;;;;23.40;47.25;101250.56;5033582;28;20532;-62
2023/08/14 02:24:39;;;;;;;3.85;1.27;;;;;;;23.38;47.37;101244.47;5036087;28;20440;-62
2023/08/14 02:27:05;;;;;;;6.05;1.80;;;;;;;23.38;47.03;101249.94;5035037;28;20121;-62
2023/08/14 02:29:30;;;;;;;6.28;1.52;;;;;;;23.36;47.27;101254.75;5036107;28;20037;-62
2023/08/14 02:31:56;;;;;;;11.40;2.08;;;;;;;23.34;46.65;101250.53;5018548;28;20095;-62
2023/08/14 02:34:44;;;;;;;10.25;1.70;;;;;;;23.32;46.79;101256.19;5034759;28;20025;-62
2023/08/14 02:37:11;;;;;;;3.90;1.85;;;;;;;23.27;47.50;101246.91;5018691;28;20040;-62
2023/08/14 02:39:36;;;;;;;2.58;1.63;;;;;;;23.25;47.29;101255.31;5035284;28;20036;-63
2023/08/14 02:42:02;;;;;;;1.90;1.50;;;;;;;23.24;47.38;101253.63;5019070;28;20038;-62
2023/08/14 02:44:28;;;;;;;3.90;1.23;;;;;;;23.25;47.41;101252.59;5035937;28;20033;-64
2023/08/14 02:46:54;;;;;;;2.50;1.55;;;;;;;23.20;46.96;101246.84;5036107;28;20505;-62
2023/08/14 02:49:19;;;;;;;4.15;1.33;;;;;;;23.22;47.11;101247.50;5036093;28;20093;-62
2023/08/14 02:51:44;;;;;;;3.05;1.10;;;;;;;23.19;47.66;101256.97;5034430;28;20120;-63
2023/08/14 02:54:10;;;;;;;7.18;2.47;;;;;;;23.15;47.41;101246.63;5035952;28;20042;-63
2023/08/14 02:56:36;;;;;;;3.33;1.20;;;;;;;23.12;47.09;101244.28;5036967;28;20513;-63
2023/08/14 02:59:02;;;;;;;5.70;1.40;;;;;;;23.11;46.86;101259.88;5035730;28;20496;-62
2023/08/14 03:01:27;;;;;;;2.42;1.15;;;;;;;23.08;47.20;101264.88;5018199;28;20453;-63
2023/08/14 03:03:53;;;;;;;1.10;1.00;;;;;;;23.06;47.77;101256.84;5035515;28;20564;-63
2023/08/14 03:06:18;;;;;;;4.40;1.52;;;;;;;23.03;47.20;101248.25;5034524;28;20083;-62
2023/08/14 03:08:44;;;;;;;1.30;1.00;;;;;;;23.00;47.25;101243.16;5017999;28;20029;-62
2023/08/14 03:11:10;;;;;;;1.38;1.20;;;;;;;22.99;47.01;101244.19;5017761;28;20417;-62
2023/08/14 03:13:36;;;;;;;2.75;0.90;;;;;;;22.96;47.57;101239.13;5018237;28;20045;-62
2023/08/14 03:16:01;;;;;;;1.55;1.08;;;;;;;22.93;46.79;101245.00;5036034;28;20025;-62
2023/08/14 03:18:26;;;;;;;1.92;0.88;;;;;;;22.91;47.48;101241.63;5035058;28;20049;-62
2023/08/14 03:20:52;;;;;;;3.42;1.20;;;;;;;22.86;47.70;101239.50;5037052;28;20034;-62
2023/08/14 03:23:17;;;;;;;7.38;1.30;;;;;;;22.87;47.12;101243.06;5060526;28;20455;-62
2023/08/14 03:25:43;;;;;;;3.10;1.08;;;;;;;22.83;47.30;101237.16;5060835;28;20044;-64
2023/08/14 03:28:08;;;;;;;3.05;1.17;;;;;;;22.81;47.90;101235.69;5061995;28;20401;-63
2023/08/14 03:30:33;;;;;;;2.38;0.82;;;;;;;22.76;47.60;101233.53;5035519;28;20400;-62
2023/08/14 03:32:59;;;;;;;1.90;0.77;;;;;;;22.74;47.22;101234.78;5060253;28;20036;-62
2023/08/14 03:35:25;;;;;;;3.03;1.42;;;;;;;22.72;47.83;101239.59;5057201;28;20033;-62
2023/08/14 03:37:50;;;;;;;2.13;1.30;;;;;;;22.69;47.74;101229.91;5054833;28;20041;-63
2023/08/14 03:40:15;;;;;;;5.00;1.35;;;;;;;22.68;47.71;101230.09;5054267;28;20094;-64
2023/08/14 03:42:41;;;;;;;5.60;1.50;;;;;;;22.65;47.56;101231.34;5054392;28;20032;-64
2023/08/14 03:45:07;;;;;;;4.13;1.40;;;;;;;22.61;47.37;101230.84;5054534;28;20020;-63
2023/08/14 03:47:32;;;;;;;3.00;1.20;;;;;;;22.58;47.60;101231.25;5038073;28;20096;-63
2023/08/14 03:49:58;;;;;;;3.88;1.30;;;;;;;22.59;47.76;101232.94;5055058;28;20063;-63
2023/08/14 03:52:23;;;;;;;2.70;1.60;;;;;;;22.57;47.01;101240.50;5053667;28;20096;-62
2023/08/14 03:54:49;;;;;;;2.35;1.42;;;;;;;22.56;47.02;101244.25;5054417;28;20033;-63
2023/08/14 03:57:14;;;;;;;2.65;0.98;;;;;;;22.55;47.47;101234.41;5053602;28;20082;-63
2023/08/14 03:59:40;;;;;;;3.13;1.15;;;;;;;22.53;47.05;101233.72;5054487;28;20025;-62
2023/08/14 04:02:05;;;;;;;1.60;1.20;;;;;;;22.54;48.15;101237.31;5055418;28;20379;-62
2023/08/14 04:04:31;;;;;;;3.92;1.48;;;;;;;22.51;47.40;101235.81;5055351;28;20041;-62
2023/08/14 04:06:57;;;;;;;2.33;1.10;;;;;;;22.50;47.50;101234.13;5037933;28;20048;-62
2023/08/14 04:09:23;;;;;;;1.85;1.38;;;;;;;22.49;47.62;101228.88;5057320;28;20041;-62
2023/08/14 04:11:48;;;;;;;2.83;1.42;;;;;;;22.48;47.33;101233.47;5053250;28;20059;-62
2023/08/14 04:14:14;;;;;;;1.15;1.00;;;;;;;22.44;47.89;101223.16;5054787;28;20040;-63
2023/08/14 04:16:46;;;;;;;6.18;1.90;;;;;;;22.44;47.69;101234.06;5053505;28;20028;-61
2023/08/14 04:19:13;;;;;;;5.00;1.17;;;;;;;22.41;47.45;101224.41;5037564;28;20377;-62
2023/08/14 04:21:40;;;;;;;4.57;1.20;;;;;;;22.36;47.71;101215.09;5054195;28;20028;-63
2023/08/14 04:24:07;;;;;;;5.43;1.38;;;;;;;22.38;48.02;101218.47;5052102;28;20053;-62
2023/08/14 04:26:32;;;;;;;2.40;1.00;;;;;;;22.35;47.77;101197.88;5036167;28;20052;-63
2023/08/14 04:28:57;;;;;;;2.22;0.95;;;;;;;22.34;47.20;101196.19;5054036;28;20049;-63
2023/08/14 04:31:23;;;;;;;3.38;1.20;;;;;;;22.34;47.32;101206.25;5036222;28;20059;-63
2023/08/14 04:33:48;;;;;;;5.25;1.48;;;;;;;22.32;47.26;101209.19;5052695;28;20033;-62
2023/08/14 04:36:14;;;;;;;1.75;1.35;;;;;;;22.31;47.25;101195.72;5052573;28;20037;-62
2023/08/14 04:38:39;;;;;;;7.13;1.45;;;;;;;22.32;48.13;101203.72;5050720;28;20029;-62
2023/08/14 04:41:04;;;;;;;7.75;1.55;;;;;;;22.31;47.24;101204.75;5052190;28;20025;-62
2023/08/14 04:43:31;;;;;;;7.22;1.30;;;;;;;22.32;47.61;101214.66;5053279;28;20028;-63
2023/08/14 04:45:57;;;;;;;3.28;1.45;;;;;;;22.34;48.10;101211.72;5052079;28;20476;-62
2023/08/14 04:48:23;;;;;;;2.42;1.60;;;;;;;22.34;47.61;101201.63;5051994;28;20546;-62
2023/08/14 04:50:48;;;;;;;2.53;1.10;;;;;;;22.36;48.39;101196.81;5052771;28;20033;-62
2023/08/14 04:53:14;;;;;;;12.57;1.35;;;;;;;22.39;47.37;101199.16;5052190;28;20474;-62
2023/08/14 04:55:39;;;;;;;2.53;1.05;;;;;;;22.41;48.31;101196.25;5045202;28;20416;-62
2023/08/14 04:58:05;;;;;;;4.20;1.38;;;;;;;22.47;47.57;101181.81;5051683;28;20041;-62
2023/08/14 05:00:30;;;;;;;4.47;1.45;;;;;;;22.55;48.30;101181.66;5053350;28;20032;-62
2023/08/14 05:02:56;;;;;;;4.60;1.92;;;;;;;22.66;47.47;101189.34;5051552;28;20492;-62
2023/08/14 05:05:21;;;;;;;6.15;1.15;;;;;;;22.76;48.00;101183.50;5053333;28;20025;-62
2023/08/14 05:07:47;;;;;;;2.65;1.20;;;;;;;22.84;47.81;101178.72;5051525;28;20029;-62
2023/08/14 05:10:12;;;;;;;5.32;1.42;;;;;;;22.94;47.98;101181.13;5051569;28;20033;-62
2023/08/14 05:12:37;;;;;;;5.28;1.10;;;;;;;23.01;47.44;101185.56;5051107;28;20029;-62
2023/08/14 05:15:03;;;;;;;5.55;1.45;;;;;;;23.16;47.54;101189.03;5052449;28;20032;-61
2023/08/14 05:17:29;;;;;;;5.00;1.83;;;;;;;23.30;48.18;101189.09;5051468;28;20472;-62
2023/08/14 05:19:55;;;;;;;5.80;1.35;;;;;;;23.43;47.36;101192.75;5051422;28;20112;-62
2023/08/14 05:22:21;;;;;;;3.40;1.30;;;;;;;23.57;47.58;101178.06;5052868;28;20056;-63
2023/08/14 05:24:47;;;;;;;3.90;1.45;;;;;;;23.72;47.04;101181.50;5034802;28;20033;-62
2023/08/14 05:27:12;;;;;;;3.38;1.40;;;;;;;23.82;47.48;101193.91;5050691;28;20037;-62
2023/08/14 05:29:38;;;;;;;6.45;1.58;;;;;;;23.86;47.36;101198.78;5052848;28;20068;-61
2023/08/14 05:32:04;;;;;;;6.07;1.40;;;;;;;23.94;47.59;101195.00;5051284;28;20032;-62
2023/08/14 05:34:30;;;;;;;4.40;1.40;;;;;;;24.02;46.89;101186.59;5034873;28;20427;-62
2023/08/14 05:36:55;;;;;;;6.65;1.58;;;;;;;24.08;47.30;101175.69;5052677;28;20025;-62
2023/08/14 05:39:21;;;;;;;1.80;1.42;;;;;;;24.12;47.52;101176.13;5051467;28;20037;-61
2023/08/14 05:41:46;;;;;;;3.17;0.98;;;;;;;24.18;47.93;101181.59;5034735;28;20032;-61
2023/08/14 05:44:12;;;;;;;10.43;1.73;;;;;;;24.20;47.41;101176.75;5051455;28;20437;-62
2023/08/14 05:46:37;;;;;;;1.40;1.13;;;;;;;24.25;47.07;101184.34;5053445;28;20021;-62
2023/08/14 05:49:03;;;;;;;4.40;1.63;;;;;;;24.30;47.72;101195.53;5030573;28;20037;-62
2023/08/14 05:51:29;;;;;;;7.18;1.85;;;;;;;24.32;47.27;101193.41;5039382;28;20033;-62
2023/08/14 05:53:54;;;;;;;3.22;1.88;;;;;;;24.34;47.21;101185.84;5053163;28;20033;-62
2023/08/14 05:56:20;;;;;;;4.07;1.20;;;;;;;24.37;47.78;101195.53;5051664;28;20041;-62
2023/08/14 05:58:45;;;;;;;3.70;1.10;;;;;;;24.38;47.40;101187.09;5051154;28;20399;-61
2023/08/14 06:01:10;;;;;;;2.13;1.40;;;;;;;24.41;47.55;101203.09;5051235;28;20044;-62
2023/08/14 06:03:38;;;;;;;2.85;1.05;;;;;;;24.42;47.43;101206.69;5051042;28;20557;-62
2023/08/14 06:06:04;;;;;;;3.40;1.35;;;;;;;24.45;47.30;101218.06;5051147;28;20037;-62
2023/08/14 06:08:29;;;;;;;4.63;2.47;;;;;;;24.46;47.66;101222.47;5034494;28;20116;-62
2023/08/14 06:10:55;;;;;;;2.90;1.48;;;;;;;24.50;47.47;101223.75;5052206;28;20457;-62
2023/08/14 06:13:20;;;;;;;3.17;1.02;;;;;;;24.53;47.61;101231.56;5050867;28;20041;-62
2023/08/14 06:15:45;;;;;;;2.13;1.02;;;;;;;24.54;47.67;101225.00;5050981;28;20560;-62
2023/08/14 06:18:11;;;;;;;5.50;1.70;;;;;;;24.55;47.21;101225.84;5051135;28;20052;-63
2023/08/14 06:20:36;;;;;;;3.25;1.30;;;;;;;24.55;47.61;101223.97;5034019;28;20041;-62
2023/08/14 06:23:02;;;;;;;3.10;1.48;;;;;;;24.59;47.62;101214.28;5051802;28;20053;-62
2023/08/14 06:25:31;;;;;;;5.45;1.48;;;;;;;24.62;47.48;101211.09;5034051;28;20094;-62
2023/08/14 06:27:56;;;;;;;5.85;1.80;;;;;;;24.66;47.17;101217.84;5054370;28;20033;-62
2023/08/14 06:30:23;;;;;;;7.70;1.88;;;;;;;24.66;47.20;101217.84;5055664;28;20033;-62
2023/08/14 06:32:49;;;;;;;6.38;1.48;;;;;;;24.73;47.63;101224.19;5054123;28;20052;-61
2023/08/14 06:35:14;;;;;;;5.80;1.75;;;;;;;24.77;47.64;101216.38;5054419;28;20488;-62
2023/08/14 06:37:40;;;;;;;3.65;1.40;;;;;;;24.82;47.78;101214.69;5037694;28;20056;-62
2023/08/14 06:40:06;;;;;;;4.35;1.05;;;;;;;24.85;47.48;101210.69;5055694;28;20435;-64
2023/08/14 06:42:32;;;;;;;4.72;1.75;;;;;;;24.90;47.47;101202.69;5055052;28;20036;-62
2023/08/14 06:44:57;;;;;;;3.10;1.63;;;;;;;24.95;47.59;101199.31;5054424;28;20083;-62
2023/08/14 06:47:23;;;;;;;1.88;1.23;;;;;;;25.01;47.62;101192.97;5054010;28;20515;-62
2023/08/14 06:49:48;;;;;;;5.10;1.40;;;;;;;25.07;47.67;101197.59;5037263;28;20037;-62
2023/08/14 06:52:13;;;;;;;2.70;1.35;;;;;;;25.13;47.63;101186.59;5053612;28;20033;-62
2023/08/14 06:54:39;;;;;;;6.30;1.33;;;;;;;25.20;47.30;101183.84;5055232;28;20091;-62
2023/08/14 06:57:05;;;;;;;2.17;1.50;;;;;;;25.22;47.27;101182.56;5054162;28;20029;-62
2023/08/14 06:59:30;;;;;;;3.70;1.15;;;;;;;25.31;47.24;101185.91;5054024;28;20471;-63
2023/08/14 07:01:57;;;;;;;4.50;1.60;;;;;;;25.48;47.02;101169.84;5054244;28;20496;-62
2023/08/14 07:04:22;;;;;;;10.80;1.60;;;;;;;25.89;46.55;101181.22;5053712;28;20033;-61
2023/08/14 07:06:48;;;;;;;2.35;1.33;;;;;;;26.15;46.34;101172.00;5053799;28;20086;-62
2023/08/14 07:09:16;;;;;;;3.83;1.33;;;;;;;26.34;45.55;101181.97;5053899;28;20025;-62
2023/08/14 07:11:42;;;;;;;6.53;1.63;;;;;;;26.53;45.34;101167.22;5053705;28;20493;-62
2023/08/14 07:14:07;;;;;;;5.85;1.92;;;;;;;26.85;45.37;101187.25;5053666;28;20029;-63
2023/08/14 07:16:33;;;;;;;4.88;1.70;;;;;;;26.99;45.06;101178.66;5053703;28;20056;-64
2023/08/14 07:18:59;;;;;;;5.65;1.25;;;;;;;27.11;45.52;101181.47;5036936;28;20044;-63
2023/08/14 07:21:24;;;;;;;4.20;1.38;;;;;;;27.12;44.68;101169.41;5036832;28;20063;-62
2023/08/14 07:23:50;;;;;;;2.90;0.93;;;;;;;27.35;44.79;101179.72;5036546;28;20049;-62
2023/08/14 07:26:16;;;;;;;2.97;1.10;;;;;;;27.50;44.78;101182.94;5036930;28;20500;-62
2023/08/14 07:28:41;;;;;;;2.08;1.05;;;;;;;27.58;44.64;101177.13;5036577;28;20158;-63
2023/08/14 07:31:07;;;;;;;3.70;1.50;;;;;;;27.93;44.20;101172.59;5053411;28;20400;-64
2023/08/14 07:33:33;;;;;;;3.67;1.02;;;;;;;28.27;43.59;101188.41;5036393;28;20033;-63
2023/08/14 07:35:59;;;;;;;6.65;1.17;;;;;;;28.60;44.25;101181.47;5036537;28;20405;-63
2023/08/14 07:38:27;;;;;;;3.05;0.90;;;;;;;28.83;43.45;101184.28;5052781;28;20059;-63
2023/08/14 07:40:54;;;;;;;3.40;1.23;;;;;;;29.05;43.14;101190.88;5036955;28;20044;-62
2023/08/14 07:43:19;;;;;;;2.92;1.40;;;;;;;29.25;43.17;101185.00;5054403;28;20188;-63
2023/08/14 07:45:45;;;;;;;3.03;1.10;;;;;;;29.62;42.33;101186.28;5053195;28;20151;-63
2023/08/14 07:48:11;;;;;;;5.00;1.00;;;;;;;29.87;42.23;101197.88;5053297;28;20036;-63
2023/08/14 07:50:36;;;;;;;2.38;0.80;;;;;;;30.08;42.29;101204.63;5036222;28;20578;-62
2023/08/14 07:53:02;;;;;;;2.97;1.17;;;;;;;30.42;41.41;101202.78;5052254;28;20033;-61
2023/08/14 07:55:27;;;;;;;3.40;0.88;;;;;;;30.75;41.25;101207.47;5054281;28;20396;-61
2023/08/14 07:57:53;;;;;;;3.70;1.25;;;;;;;31.05;40.32;101219.03;5054000;28;20404;-62
2023/08/14 08:00:18;;;;;;;5.20;1.77;;;;;;;31.36;40.55;101207.28;5052741;28;20029;-62
2023/08/14 08:02:44;;;;;;;11.43;2.25;;;;;;;31.69;40.45;101200.78;5054075;28;20068;-62
2023/08/14 08:05:09;;;;;;;4.72;1.40;;;;;;;32.04;40.28;101195.69;5035935;28;20040;-61
2023/08/14 08:07:35;;;;;;;4.53;2.25;;;;;;;32.35;39.19;101199.59;5052446;28;20025;-62
2023/08/14 08:10:01;;;;;;;5.10;1.60;;;;;;;32.66;39.37;101192.38;5052304;28;20062;-61
2023/08/14 08:12:27;;;;;;;3.45;1.20;;;;;;;32.90;38.47;101188.09;5036119;28;20488;-63
2023/08/14 08:14:52;;;;;;;5.03;2.10;;;;;;;33.11;38.74;101194.66;5053769;28;20026;-61
2023/08/14 08:17:18;;;;;;;4.20;1.48;;;;;;;33.35;38.28;101201.44;5052370;28;20037;-64
2023/08/14 08:19:46;;;;;;;3.33;1.92;;;;;;;33.59;38.18;101194.31;5036012;28;20033;-63
2023/08/14 08:22:11;;;;;;;5.22;1.65;;;;;;;33.83;38.28;101195.53;5052782;28;20047;-61
2023/08/14 08:24:36;;;;;;;5.45;2.35;;;;;;;34.00;37.53;101192.50;5052831;28;20045;-62
2023/08/14 08:27:02;;;;;;;2.63;1.33;;;;;;;34.21;37.42;101188.66;5036828;28;20065;-62
2023/08/14 08:29:27;;;;;;;3.85;1.98;;;;;;;34.43;37.13;101182.81;5055021;28;20051;-62
2023/08/14 08:31:53;;;;;;;3.38;1.92;;;;;;;34.65;36.83;101182.56;5055628;28;20025;-62
2023/08/14 08:34:18;;;;;;;4.93;1.67;;;;;;;34.86;37.05;101185.03;5055283;28;20036;-62
2023/08/14 08:36:44;;;;;;;8.13;1.95;;;;;;;35.08;36.80;101185.56;5054140;28;20091;-62
2023/08/14 08:39:09;;;;;;;3.88;1.95;;;;;;;35.27;36.26;101179.38;5052454;28;20055;-62
2023/08/14 08:41:38;;;;;;;3.58;1.50;;;;;;;35.46;36.25;101169.25;5052393;28;20037;-63
2023/08/14 08:44:07;;;;;;;3.42;1.30;;;;;;;35.64;35.22;101171.44;5052572;28;20044;-62
2023/08/14 08:46:37;;;;;;;6.57;2.13;;;;;;;35.72;34.82;101165.25;5051711;28;20516;-62
2023/08/14 08:49:03;;;;;;;5.43;1.63;;;;;;;35.87;34.93;101179.13;5051162;28;20044;-62
2023/08/14 08:51:30;;;;;;;3.05;1.33;;;;;;;36.02;34.85;101176.22;5035332;28;20029;-62
2023/08/14 08:53:55;;;;;;;5.70;1.55;;;;;;;36.15;34.43;101164.44;5052016;28;20373;-63
2023/08/14 08:56:21;;;;;;;5.70;2.67;;;;;;;36.33;34.45;101162.88;5035279;28;20098;-62
2023/08/14 08:58:47;;;;;;;4.55;2.05;;;;;;;36.51;33.85;101161.38;5051897;28;20025;-62
2023/08/14 09:01:13;;;;;;;4.72;1.15;;;;;;;36.52;34.37;101151.84;5052085;28;20033;-62
2023/08/14 09:03:39;;;;;;;3.78;1.08;;;;;;;36.72;34.29;101163.66;5051972;28;20036;-62
2023/08/14 09:06:05;;;;;;;3.67;1.50;;;;;;;36.84;33.11;101154.88;5051797;28;20025;-64
2023/08/14 09:08:31;;;;;;;4.68;0.95;;;;;;;36.50;33.96;101162.47;5051790;28;20524;-62
2023/08/14 09:10:56;;;;;;;2.33;1.08;;;;;;;36.24;33.96;101166.59;5051775;28;20037;-62
2023/08/14 09:13:22;;;;;;;3.03;1.00;;;;;;;35.99;34.08;101162.84;5052936;28;20043;-62
2023/08/14 09:15:47;;;;;;;8.27;1.25;;;;;;;35.81;33.90;101171.91;5051238;28;20037;-62
2023/08/14 09:18:13;;;;;;;2.67;0.73;;;;;;;36.00;33.29;101164.50;5035078;28;20548;-63
2023/08/14 09:20:39;;;;;;;5.25;1.25;;;;;;;36.21;32.82;101166.03;5034638;28;20534;-62
2023/08/14 09:23:07;;;;;;;8.13;1.20;;;;;;;36.57;32.33;101174.16;5035048;28;20033;-62
2023/08/14 09:25:32;;;;;;;2.17;0.63;;;;;;;36.80;32.33;101169.75;5051274;28;20583;-62
2023/08/14 09:27:58;;;;;;;1.65;1.00;;;;;;;37.01;31.88;101174.00;5051620;28;20033;-62
2023/08/14 09:30:25;;;;;;;4.88;0.98;;;;;;;37.19;31.43;101165.66;5053096;28;20043;-62
2023/08/14 09:32:50;;;;;;;1.70;0.50;;;;;;;37.35;31.13;101169.13;5051726;28;20029;-62
2023/08/14 09:35:16;;;;;;;4.00;0.73;;;;;;;37.51;31.82;101159.44;5035002;28;20079;-62
2023/08/14 09:37:41;;;;;;;4.63;0.75;;;;;;;37.64;30.62;101155.88;5034926;28;20500;-62
2023/08/14 09:40:06;;;;;;;2.50;0.68;;;;;;;37.78;30.44;101153.16;5051606;28;20052;-62
2023/08/14 09:42:32;;;;;;;1.58;0.50;;;;;;;37.87;30.68;101160.63;5051382;28;20044;-62
2023/08/14 09:44:57;;;;;;;2.03;0.80;;;;;;;37.99;30.20;101153.72;5034965;28;20039;-62
2023/08/14 09:47:22;;;;;;;2.50;0.57;;;;;;;38.06;30.42;101148.56;5051385;28;20033;-62
2023/08/14 09:49:48;;;;;;;1.05;0.80;;;;;;;38.22;29.90;101142.41;5051084;28;20042;-62
2023/08/14 09:52:13;;;;;;;4.35;1.02;;;;;;;38.46;29.54;101147.91;5052703;28;20078;-63
2023/08/14 09:54:39;;;;;;;3.08;0.77;;;;;;;38.80;29.42;101133.59;5052488;28;20112;-62
2023/08/14 09:57:05;;;;;;;2.13;1.75;;;;;;;39.44;29.12;101140.97;5034483;28;20029;-63
2023/08/14 09:59:30;;;;;;;2.08;1.70;;;;;;;40.31;28.11;101127.41;5052398;28;20064;-63
2023/08/14 10:01:58;;;;;;;3.83;0.95;;;;;;;41.70;26.93;101125.66;5054781;28;20053;-63
2023/08/14 10:04:27;;;;;;;3.10;1.13;;;;;;;43.60;24.47;101123.13;5038454;28;20041;-63
2023/08/14 10:06:52;;;;;;;3.38;1.08;;;;;;;44.27;24.72;101118.09;5055013;28;20489;-63
2023/08/14 10:09:20;;;;;;;0.98;0.52;;;;;;;43.77;24.50;101123.88;5038442;28;20048;-63
2023/08/14 10:11:46;;;;;;;2.80;0.98;;;;;;;43.32;24.93;101108.69;5054773;28;20041;-65
2023/08/14 10:14:13;;;;;;;3.53;1.02;;;;;;;43.01;25.41;101119.50;5055110;28;20029;-63
2023/08/14 10:16:39;;;;;;;1.45;1.02;;;;;;;42.78;25.69;101122.56;5038163;28;20032;-63
2023/08/14 10:19:10;;;;;;;2.90;1.23;;;;;;;42.73;25.47;101124.75;5055086;28;20072;-63
2023/08/14 10:21:38;;;;;;;1.95;0.75;;;;;;;42.70;25.22;101120.59;5055171;28;20021;-62
2023/08/14 10:24:03;;;;;;;1.98;0.82;;;;;;;42.75;25.33;101116.75;5055162;28;20031;-63
2023/08/14 10:26:31;;;;;;;2.65;0.70;;;;;;;42.83;25.40;101107.44;5055035;28;20398;-62
2023/08/14 10:28:57;;;;;;;0.93;0.70;;;;;;;42.91;24.88;101103.78;5055568;28;20029;-63
2023/08/14 10:31:25;;;;;;;1.15;0.80;;;;;;;43.02;24.64;101098.59;5056126;28;20027;-63
2023/08/14 10:33:50;;;;;;;3.95;1.20;;;;;;;43.18;24.70;101096.84;5056085;28;20048;-62
2023/08/14 10:36:19;;;;;;;6.78;1.15;;;;;;;43.36;24.33;101101.25;5056793;28;20037;-63
2023/08/14 10:38:49;;;;;;;2.88;0.65;;;;;;;43.49;24.61;101097.31;5040178;28;20033;-63
2023/08/14 10:41:16;;;;;;;4.05;0.90;;;;;;;43.66;24.06;101100.00;5057688;28;20037;-62
2023/08/14 10:43:42;;;;;;;5.65;1.92;;;;;;;43.75;23.95;101095.13;5059068;28;20028;-62
2023/08/14 10:46:09;;;;;;;2.45;0.85;;;;;;;43.84;23.37;101095.88;5057614;28;20497;-63
2023/08/14 10:48:36;;;;;;;3.15;0.80;;;;;;;43.87;23.43;101091.53;5057021;28;20100;-62
2023/08/14 10:51:01;;;;;;;2.88;1.02;;;;;;;43.75;23.51;101089.47;5056539;28;20033;-63
2023/08/14 10:53:29;;;;;;;3.58;1.00;;;;;;;43.89;23.23;101084.34;5039132;28;20033;-62
2023/08/14 10:55:55;;;;;;;3.72;1.20;;;;;;;44.08;22.68;101077.38;5039321;28;20515;-63
2023/08/14 10:58:33;;;;;;;2.45;1.05;;;;;;;44.02;23.05;101088.91;5056115;28;20112;-63
2023/08/14 11:00:59;;;;;;;2.33;1.13;;;;;;;43.98;23.52;101082.28;5058053;28;20035;-63
2023/08/14 11:03:25;;;;;;;1.98;0.70;;;;;;;44.06;23.07;101085.38;5057324;28;20033;-62
2023/08/14 11:05:50;;;;;;;3.80;0.80;;;;;;;43.97;23.04;101080.63;5056171;28;20402;-62
2023/08/14 11:08:17;;;;;;;3.17;1.05;;;;;;;43.90;22.93;101086.03;5043243;28;20079;-62
2023/08/14 11:10:44;;;;;;;2.00;0.93;;;;;;;43.90;22.60;101085.19;5063286;28;20025;-62
2023/08/14 11:13:10;;;;;;;5.18;1.05;;;;;;;43.87;22.79;101089.53;5037706;28;20030;-62
2023/08/14 11:15:37;;;;;;;2.88;1.15;;;;;;;43.96;23.19;101098.75;5063833;28;20056;-62
2023/08/14 11:18:10;;;;;;;2.83;0.95;;;;;;;43.90;22.92;101100.16;5046844;28;20068;-62
2023/08/14 11:20:42;;;;;;;2.78;1.40;;;;;;;43.94;23.08;101089.81;5065904;28;20059;-62